Beatrice, NE

2:32 PM CDT on May 23, 2018 (GMT -0500)
Beatrice Municipal

Weather History for KBIE - January, 2011

Change the Weather History Date:

Friday, January 28, 2011

  Actual Average Record
Temperature  
Mean Temperature 36 °F -  
Max Temperature 48 °F 35 °F 65 °F (2015)
Min Temperature 23 °F 13 °F -14 °F (1997)
Degree Days  
Heating Degree Days 30    
Moisture  
Dew Point 29 °F    
Average Humidity 82    
Maximum Humidity 99    
Minimum Humidity 60    
Precipitation  
Precipitation 0.00 in - - ()
Sea Level Pressure  
Sea Level Pressure 29.86 in    
Wind  
Wind Speed 4 mph (WSW)    
Max Wind Speed 10 mph    
Max Gust Speed -    
Visibility 10 miles    
Events      
Averages and records for this station are not official NWS values.
T = Trace of Precipitation, MM = Missing Value Source: NWS Daily Summary

Daily Weather History Graph

Daily Weather History Graph

Search for Another Location

Airport or City:

Astronomy

Jan. 28, 2011 Rise Set
Actual Time 7:39 AM CST 5:40 PM CST
Civil Twilight 7:10 AM CST 6:09 PM CST
Nautical Twilight 6:38 AM CST 6:42 PM CST
Astronomical Twilight 6:05 AM CST 7:14 PM CST
Moon 3:17 AM CST (1/28) 12:45 PM CST (1/28)
Length of Visible Light 10h 58m
Length of Day
10h 00m
Waning Crescent, 27% of the Moon is Illuminated
Jan 28
Waning Crescent
Feb 2
New
Feb 11
First Quarter
Feb 18
Full
Feb 24
Last Quarter

Hourly Weather History & Observations

Time (CST) Temp. Windchill Dew Point Humidity Pressure Visibility Wind Dir Wind Speed Gust Speed Precip Events Conditions
12:10 AM 27.0 °F 23.0 °F 26.1 °F 96% 29.93 in 10.0 mi WNW 3.5 mph - N/A   Clear
12:30 AM 26.1 °F - 24.8 °F 95% 29.93 in 10.0 mi Calm Calm - N/A   Clear
12:50 AM 28.4 °F - 27.5 °F 96% 29.92 in 10.0 mi Calm Calm - N/A   Clear
1:10 AM 27.0 °F 23.0 °F 26.1 °F 96% 29.92 in 10.0 mi SW 3.5 mph - N/A   Clear
1:30 AM 25.9 °F - 25.2 °F 97% 29.92 in 10.0 mi Calm Calm - N/A   Clear
1:50 AM 26.2 °F - 25.5 °F 97% 29.92 in 10.0 mi Calm Calm - N/A   Clear
2:10 AM 26.6 °F - 26.2 °F 99% 29.92 in 7.0 mi Calm Calm - N/A   Clear
2:30 AM 25.7 °F - 25.2 °F 98% 29.91 in 7.0 mi Calm Calm - N/A   Clear
2:50 AM 24.8 °F - 24.3 °F 98% 29.91 in 10.0 mi Calm Calm - N/A   Clear
3:10 AM 25.3 °F 21.1 °F 24.8 °F 98% 29.91 in 7.0 mi SSW 3.5 mph - N/A   Clear
3:30 AM 25.5 °F - 25.0 °F 98% 29.90 in 7.0 mi Calm Calm - N/A   Clear
3:50 AM 25.2 °F - 24.4 °F 97% 29.90 in 7.0 mi Calm Calm - N/A   Clear
4:10 AM 25.5 °F - 24.8 °F 97% 29.89 in 10.0 mi Calm Calm - N/A   Clear
4:30 AM 24.8 °F - 24.3 °F 98% 29.89 in 7.0 mi Calm Calm - N/A   Clear
4:50 AM 25.5 °F - 24.8 °F 97% 29.88 in 10.0 mi Calm Calm - N/A   Clear
5:10 AM 25.7 °F - 25.3 °F 99% 29.88 in 7.0 mi Calm Calm - N/A   Clear
5:30 AM 24.4 °F - 23.9 °F 98% 29.88 in 10.0 mi Calm Calm - N/A   Clear
5:50 AM 23.0 °F - 22.3 °F 97% 29.87 in 10.0 mi Calm Calm - N/A   Clear
6:10 AM 23.9 °F - 23.4 °F 98% 29.86 in 10.0 mi Calm Calm - N/A   Clear
6:30 AM 24.4 °F 18.6 °F 23.9 °F 98% 29.85 in 7.0 mi South 4.6 mph - N/A   Clear
6:50 AM 25.5 °F 21.3 °F 25.0 °F 98% 29.85 in 10.0 mi SSE 3.5 mph - N/A   Clear
7:10 AM 25.3 °F 21.1 °F 24.6 °F 97% 29.85 in 10.0 mi South 3.5 mph - N/A   Clear
7:30 AM 26.4 °F 20.9 °F 25.7 °F 97% 29.86 in 10.0 mi SSW 4.6 mph - N/A   Clear
7:50 AM 25.3 °F 19.7 °F 24.1 °F 95% 29.86 in 10.0 mi SSW 4.6 mph - N/A   Clear
8:10 AM 24.6 °F - 23.7 °F 96% 29.85 in 10.0 mi Calm Calm - N/A   Clear
8:30 AM 27.1 °F - 26.4 °F 97% 29.85 in 10.0 mi Calm Calm - N/A   Clear
8:50 AM 28.8 °F 23.7 °F 27.9 °F 96% 29.85 in 10.0 mi SSW 4.6 mph - N/A   Clear
9:10 AM 32.0 °F 24.8 °F 29.8 °F 92% 29.85 in 10.0 mi SW 8.1 mph - N/A   Clear
9:30 AM 32.9 °F 25.9 °F 30.4 °F 90% 29.84 in 10.0 mi SW 8.1 mph - N/A   Clear
9:50 AM 34.7 °F 28.8 °F 30.9 °F 86% 29.84 in 10.0 mi SW 6.9 mph - N/A   Clear
10:10 AM 36.3 °F 30.1 °F 31.1 °F 81% 29.85 in 10.0 mi WSW 8.1 mph - N/A   Clear
10:30 AM 37.4 °F 32.1 °F 31.3 °F 79% 29.85 in 10.0 mi WSW 6.9 mph - N/A   Clear
10:50 AM 39.2 °F 32.5 °F 30.9 °F 72% 29.84 in 10.0 mi West 10.4 mph - N/A   Clear
11:10 AM 39.2 °F 33.0 °F 31.8 °F 75% 29.84 in 10.0 mi West 9.2 mph - N/A   Clear
11:30 AM 40.5 °F 37.3 °F 32.0 °F 72% 29.84 in 10.0 mi West 4.6 mph - N/A   Clear
11:50 AM 41.9 °F 37.5 °F 32.2 °F 68% 29.83 in 10.0 mi West 6.9 mph - N/A   Clear
12:10 PM 43.3 °F 38.1 °F 32.5 °F 66% 29.83 in 10.0 mi West 9.2 mph - N/A   Clear
12:30 PM 43.7 °F 38.6 °F 32.9 °F 66% 29.82 in 10.0 mi West 9.2 mph - N/A   Clear
12:50 PM 44.4 °F 40.0 °F 33.1 °F 64% 29.82 in 10.0 mi West 8.1 mph - N/A   Clear
1:10 PM 45.1 °F 40.3 °F 33.3 °F 63% 29.81 in 10.0 mi West 9.2 mph - N/A   Clear
1:30 PM 46.4 °F 42.4 °F 33.6 °F 61% 29.80 in 10.0 mi WSW 8.1 mph - N/A   Clear
1:50 PM 46.4 °F 41.9 °F 34.0 °F 62% 29.80 in 10.0 mi West 9.2 mph - N/A   Clear
2:10 PM 47.1 °F - 34.2 °F 61% 29.80 in 10.0 mi West 8.1 mph - N/A   Clear
2:30 PM 47.7 °F - 35.1 °F 62% 29.80 in 10.0 mi West 9.2 mph - N/A   Clear
2:50 PM 48.0 °F - 34.9 °F 60% 29.80 in 10.0 mi West 10.4 mph - N/A   Clear
3:10 PM 48.2 °F - 34.7 °F 60% 29.80 in 10.0 mi West 8.1 mph - N/A   Clear
3:30 PM 48.2 °F - 34.7 °F 60% 29.80 in 10.0 mi West 9.2 mph - N/A   Clear
3:50 PM 47.8 °F - 34.7 °F 60% 29.82 in 10.0 mi West 8.1 mph - N/A   Clear
4:10 PM 47.8 °F - 34.7 °F 60% 29.82 in 10.0 mi West 9.2 mph - N/A   Clear
4:30 PM 47.5 °F - 34.9 °F 62% 29.82 in 10.0 mi West 8.1 mph - N/A   Clear
4:50 PM 46.8 °F - 34.2 °F 62% 29.82 in 10.0 mi West 9.2 mph - N/A   Clear
5:10 PM 45.5 °F 40.8 °F 34.5 °F 65% 29.83 in 10.0 mi West 9.2 mph - N/A   Clear
5:30 PM 44.4 °F 39.5 °F 33.3 °F 65% 29.84 in 10.0 mi West 9.2 mph - N/A   Clear
5:50 PM 42.8 °F 39.3 °F 33.4 °F 70% 29.84 in 10.0 mi WNW 5.8 mph - N/A   Clear
6:10 PM 41.7 °F 36.7 °F 33.3 °F 72% 29.85 in 10.0 mi West 8.1 mph - N/A   Clear
6:30 PM 41.0 °F 35.8 °F 32.9 °F 73% 29.85 in 10.0 mi West 8.1 mph - N/A   Clear
6:50 PM 40.3 °F 36.3 °F 32.2 °F 73% 29.85 in 10.0 mi West 5.8 mph - N/A   Clear
7:10 PM 38.3 °F 33.2 °F 32.0 °F 78% 29.86 in 10.0 mi West 6.9 mph - N/A   Clear
7:30 PM 38.7 °F 32.9 °F 32.0 °F 77% 29.86 in 10.0 mi West 8.1 mph - N/A   Clear
7:50 PM 37.9 °F 30.5 °F 32.0 °F 79% 29.87 in 10.0 mi West 11.5 mph - N/A   Clear
8:10 PM 38.1 °F 32.9 °F 32.0 °F 79% 29.87 in 10.0 mi West 6.9 mph - N/A   Clear
8:30 PM 36.7 °F 34.1 °F 31.6 °F 82% 29.88 in 10.0 mi NNW 3.5 mph - N/A   Clear
8:50 PM 34.5 °F 31.6 °F 30.6 °F 85% 29.88 in 10.0 mi West 3.5 mph - N/A   Clear
9:10 PM 34.0 °F 29.8 °F 30.4 °F 87% 29.88 in 10.0 mi WNW 4.6 mph - N/A   Clear
9:30 PM 32.0 °F 25.6 °F 30.2 °F 93% 29.89 in 10.0 mi WNW 6.9 mph - N/A   Clear
9:50 PM 34.5 °F 28.6 °F 31.1 °F 87% 29.90 in 10.0 mi NW 6.9 mph - N/A   Clear
10:10 PM 35.6 °F 29.2 °F 30.6 °F 82% 29.91 in 10.0 mi NW 8.1 mph - N/A   Clear
10:30 PM 34.2 °F 30.0 °F 30.2 °F 85% 29.91 in 10.0 mi NW 4.6 mph - N/A   Clear
10:50 PM 34.9 °F 29.9 °F 30.4 °F 84% 29.91 in 10.0 mi NW 5.8 mph - N/A   Clear
11:10 PM 32.9 °F 29.8 °F 29.7 °F 88% 29.91 in 10.0 mi NNW 3.5 mph - N/A   Clear
11:30 PM 34.0 °F 31.0 °F 29.8 °F 85% 29.92 in 10.0 mi NW 3.5 mph - N/A   Clear
11:50 PM 32.0 °F 25.6 °F 29.1 °F 89% 29.92 in 10.0 mi NNW 6.9 mph - N/A   Clear